sensor_id;sensor_type;location;lat;lon;timestamp;pressure;altitude;pressure_sealevel;temperature;humidity
76352;BME280;65179;47.786;19.138;2023-03-14T00:01:18;99580.09;;;8.15;48.65
76352;BME280;65179;47.786;19.138;2023-03-14T00:03:45;99581.00;;;8.09;48.68
76352;BME280;65179;47.786;19.138;2023-03-14T00:06:11;99579.34;;;8.08;48.80
76352;BME280;65179;47.786;19.138;2023-03-14T00:08:37;99575.44;;;8.04;48.80
76352;BME280;65179;47.786;19.138;2023-03-14T00:11:11;99562.81;;;7.98;49.04
76352;BME280;65179;47.786;19.138;2023-03-14T00:13:37;99563.84;;;7.97;49.20
76352;BME280;65179;47.786;19.138;2023-03-14T00:16:08;99565.94;;;7.95;49.27
76352;BME280;65179;47.786;19.138;2023-03-14T00:18:34;99554.09;;;7.96;49.43
76352;BME280;65179;47.786;19.138;2023-03-14T00:21:01;99568.72;;;7.89;49.44
76352;BME280;65179;47.786;19.138;2023-03-14T00:23:28;99565.41;;;7.87;49.54
76352;BME280;65179;47.786;19.138;2023-03-14T00:25:58;99552.72;;;7.87;49.43
76352;BME280;65179;47.786;19.138;2023-03-14T00:28:24;99548.22;;;7.81;49.54
76352;BME280;65179;47.786;19.138;2023-03-14T00:30:49;99550.53;;;7.78;49.88
76352;BME280;65179;47.786;19.138;2023-03-14T00:33:15;99538.06;;;7.77;49.89
76352;BME280;65179;47.786;19.138;2023-03-14T00:35:40;99534.00;;;7.68;50.26
76352;BME280;65179;47.786;19.138;2023-03-14T00:38:05;99526.97;;;7.67;50.06
76352;BME280;65179;47.786;19.138;2023-03-14T00:40:31;99524.97;;;7.55;50.20
76352;BME280;65179;47.786;19.138;2023-03-14T00:42:56;99516.03;;;7.55;50.33
76352;BME280;65179;47.786;19.138;2023-03-14T00:45:22;99505.53;;;7.47;50.73
76352;BME280;65179;47.786;19.138;2023-03-14T00:47:47;99517.66;;;7.38;50.99
76352;BME280;65179;47.786;19.138;2023-03-14T00:50:12;99514.72;;;7.39;50.67
76352;BME280;65179;47.786;19.138;2023-03-14T00:52:38;99512.91;;;7.33;51.16
76352;BME280;65179;47.786;19.138;2023-03-14T00:55:04;99506.13;;;7.24;51.23
76352;BME280;65179;47.786;19.138;2023-03-14T00:57:29;99496.19;;;7.18;51.26
76352;BME280;65179;47.786;19.138;2023-03-14T00:59:55;99499.50;;;7.20;51.33
76352;BME280;65179;47.786;19.138;2023-03-14T01:02:20;99490.28;;;7.03;51.62
76352;BME280;65179;47.786;19.138;2023-03-14T01:04:48;99486.47;;;6.86;52.36
76352;BME280;65179;47.786;19.138;2023-03-14T01:07:14;99488.72;;;6.89;52.30
76352;BME280;65179;47.786;19.138;2023-03-14T01:09:39;99495.97;;;6.95;52.08
76352;BME280;65179;47.786;19.138;2023-03-14T01:12:05;99488.53;;;6.91;52.21
76352;BME280;65179;47.786;19.138;2023-03-14T01:14:30;99489.81;;;6.81;52.27
76352;BME280;65179;47.786;19.138;2023-03-14T01:16:56;99481.13;;;6.79;52.30
76352;BME280;65179;47.786;19.138;2023-03-14T01:19:26;99472.47;;;6.71;52.59
76352;BME280;65179;47.786;19.138;2023-03-14T01:21:52;99467.91;;;6.65;52.82
76352;BME280;65179;47.786;19.138;2023-03-14T01:24:17;99461.25;;;6.67;52.62
76352;BME280;65179;47.786;19.138;2023-03-14T01:26:43;99467.16;;;6.58;52.97
76352;BME280;65179;47.786;19.138;2023-03-14T01:29:08;99459.03;;;6.64;52.80
76352;BME280;65179;47.786;19.138;2023-03-14T01:31:34;99455.50;;;6.64;52.73
76352;BME280;65179;47.786;19.138;2023-03-14T01:33:59;99452.78;;;6.64;52.74
76352;BME280;65179;47.786;19.138;2023-03-14T01:36:24;99437.91;;;6.55;53.02
76352;BME280;65179;47.786;19.138;2023-03-14T01:38:50;99420.31;;;6.46;53.08
76352;BME280;65179;47.786;19.138;2023-03-14T01:41:21;99418.22;;;6.48;53.26
76352;BME280;65179;47.786;19.138;2023-03-14T01:43:48;99417.00;;;6.44;53.36
76352;BME280;65179;47.786;19.138;2023-03-14T01:54:22;99408.72;;;6.45;53.31
76352;BME280;65179;47.786;19.138;2023-03-14T01:56:55;99407.47;;;6.41;53.36
76352;BME280;65179;47.786;19.138;2023-03-14T01:59:22;99405.63;;;6.42;53.24
76352;BME280;65179;47.786;19.138;2023-03-14T02:01:49;99393.19;;;6.41;53.00
76352;BME280;65179;47.786;19.138;2023-03-14T02:04:17;99391.09;;;6.43;53.45
76352;BME280;65179;47.786;19.138;2023-03-14T02:07:07;99385.09;;;6.41;52.96
76352;BME280;65179;47.786;19.138;2023-03-14T02:09:36;99379.53;;;6.36;53.04
76352;BME280;65179;47.786;19.138;2023-03-14T02:12:03;99379.34;;;6.31;53.08
76352;BME280;65179;47.786;19.138;2023-03-14T02:14:33;99379.16;;;6.32;53.23
76352;BME280;65179;47.786;19.138;2023-03-14T02:17:00;99355.31;;;6.29;53.49
76352;BME280;65179;47.786;19.138;2023-03-14T02:19:53;99345.75;;;6.33;53.30
76352;BME280;65179;47.786;19.138;2023-03-14T02:22:21;99340.78;;;6.30;53.28
76352;BME280;65179;47.786;19.138;2023-03-14T02:27:31;99349.09;;;6.29;53.43
76352;BME280;65179;47.786;19.138;2023-03-14T02:30:04;99361.09;;;6.33;53.23
76352;BME280;65179;47.786;19.138;2023-03-14T02:32:33;99361.53;;;6.30;53.42
76352;BME280;65179;47.786;19.138;2023-03-14T02:35:04;99363.16;;;6.31;53.59
76352;BME280;65179;47.786;19.138;2023-03-14T02:37:36;99360.28;;;6.32;53.41
76352;BME280;65179;47.786;19.138;2023-03-14T02:40:02;99361.31;;;6.31;53.69
76352;BME280;65179;47.786;19.138;2023-03-14T02:42:29;99350.09;;;6.34;53.67
76352;BME280;65179;47.786;19.138;2023-03-14T02:45:25;99357.78;;;6.31;53.58
76352;BME280;65179;47.786;19.138;2023-03-14T02:47:50;99350.28;;;6.33;53.46
76352;BME280;65179;47.786;19.138;2023-03-14T02:50:21;99339.13;;;6.29;53.50
76352;BME280;65179;47.786;19.138;2023-03-14T02:52:47;99350.75;;;6.30;53.30
76352;BME280;65179;47.786;19.138;2023-03-14T02:55:13;99336.06;;;6.26;53.69
76352;BME280;65179;47.786;19.138;2023-03-14T02:57:38;99330.06;;;6.24;53.59
76352;BME280;65179;47.786;19.138;2023-03-14T03:00:04;99329.41;;;6.22;53.40
76352;BME280;65179;47.786;19.138;2023-03-14T03:02:30;99326.31;;;6.25;53.50
76352;BME280;65179;47.786;19.138;2023-03-14T03:04:56;99331.50;;;6.20;53.21
76352;BME280;65179;47.786;19.138;2023-03-14T03:07:21;99324.06;;;6.15;53.59
76352;BME280;65179;47.786;19.138;2023-03-14T03:09:47;99318.53;;;6.10;53.29
76352;BME280;65179;47.786;19.138;2023-03-14T03:12:12;99299.25;;;6.06;53.49
76352;BME280;65179;47.786;19.138;2023-03-14T03:14:38;99304.50;;;6.01;53.48
76352;BME280;65179;47.786;19.138;2023-03-14T03:17:06;99304.03;;;6.04;53.67
76352;BME280;65179;47.786;19.138;2023-03-14T03:19:33;99293.91;;;6.00;53.64
76352;BME280;65179;47.786;19.138;2023-03-14T03:21:59;99307.00;;;5.96;53.90
76352;BME280;65179;47.786;19.138;2023-03-14T03:24:25;99293.91;;;6.00;53.86
76352;BME280;65179;47.786;19.138;2023-03-14T03:26:51;99281.97;;;5.89;53.95
76352;BME280;65179;47.786;19.138;2023-03-14T03:29:16;99290.50;;;5.86;54.22
76352;BME280;65179;47.786;19.138;2023-03-14T03:31:42;99285.50;;;5.83;54.27
76352;BME280;65179;47.786;19.138;2023-03-14T03:34:07;99300.25;;;5.74;54.59
76352;BME280;65179;47.786;19.138;2023-03-14T03:36:33;99287.66;;;5.68;54.82
76352;BME280;65179;47.786;19.138;2023-03-14T03:38:59;99281.44;;;5.68;54.61
76352;BME280;65179;47.786;19.138;2023-03-14T03:41:25;99291.22;;;5.62;54.84
76352;BME280;65179;47.786;19.138;2023-03-14T03:43:50;99286.09;;;5.54;54.76
76352;BME280;65179;47.786;19.138;2023-03-14T03:46:16;99278.63;;;5.56;54.91
76352;BME280;65179;47.786;19.138;2023-03-14T03:48:41;99269.47;;;5.57;55.07
76352;BME280;65179;47.786;19.138;2023-03-14T03:51:07;99273.25;;;5.50;55.16
76352;BME280;65179;47.786;19.138;2023-03-14T03:53:35;99288.38;;;5.44;55.37
76352;BME280;65179;47.786;19.138;2023-03-14T03:56:01;99284.44;;;5.47;55.29
76352;BME280;65179;47.786;19.138;2023-03-14T03:58:26;99288.38;;;5.44;55.29
76352;BME280;65179;47.786;19.138;2023-03-14T04:00:52;99292.75;;;5.45;55.22
76352;BME280;65179;47.786;19.138;2023-03-14T04:03:17;99294.84;;;5.43;55.23
76352;BME280;65179;47.786;19.138;2023-03-14T04:05:42;99282.41;;;5.42;55.59
76352;BME280;65179;47.786;19.138;2023-03-14T04:08:08;99279.53;;;5.37;56.09
76352;BME280;65179;47.786;19.138;2023-03-14T04:10:34;99273.34;;;5.30;56.32
76352;BME280;65179;47.786;19.138;2023-03-14T04:13:00;99272.94;;;5.26;56.22
76352;BME280;65179;47.786;19.138;2023-03-14T04:15:25;99277.06;;;5.29;56.20
76352;BME280;65179;47.786;19.138;2023-03-14T04:17:51;99278.09;;;5.34;56.07
76352;BME280;65179;47.786;19.138;2023-03-14T04:20:16;99274.19;;;5.30;56.13
76352;BME280;65179;47.786;19.138;2023-03-14T04:22:42;99267.75;;;5.31;56.05
76352;BME280;65179;47.786;19.138;2023-03-14T04:25:08;99263.81;;;5.34;56.11
76352;BME280;65179;47.786;19.138;2023-03-14T04:27:33;99255.13;;;5.32;56.47
76352;BME280;65179;47.786;19.138;2023-03-14T04:29:58;99242.25;;;5.34;56.51
76352;BME280;65179;47.786;19.138;2023-03-14T04:32:24;99259.25;;;5.34;56.57
76352;BME280;65179;47.786;19.138;2023-03-14T04:34:49;99244.72;;;5.35;56.50
76352;BME280;65179;47.786;19.138;2023-03-14T04:37:15;99245.34;;;5.37;56.43
76352;BME280;65179;47.786;19.138;2023-03-14T04:39:41;99235.41;;;5.38;56.43
76352;BME280;65179;47.786;19.138;2023-03-14T04:42:07;99237.09;;;5.32;56.64
76352;BME280;65179;47.786;19.138;2023-03-14T04:44:32;99235.03;;;5.34;56.89
76352;BME280;65179;47.786;19.138;2023-03-14T04:46:57;99227.78;;;5.28;56.70
76352;BME280;65179;47.786;19.138;2023-03-14T04:49:23;99235.06;;;5.28;56.93
76352;BME280;65179;47.786;19.138;2023-03-14T04:51:48;99237.75;;;5.28;57.00
76352;BME280;65179;47.786;19.138;2023-03-14T04:54:17;99239.81;;;5.26;56.90
76352;BME280;65179;47.786;19.138;2023-03-14T04:56:42;99235.88;;;5.22;57.34
76352;BME280;65179;47.786;19.138;2023-03-14T04:59:08;99234.66;;;5.18;57.15
76352;BME280;65179;47.786;19.138;2023-03-14T05:01:33;99224.72;;;5.18;57.15
76352;BME280;65179;47.786;19.138;2023-03-14T05:03:59;99243.97;;;5.22;57.21
76352;BME280;65179;47.786;19.138;2023-03-14T05:06:25;99249.75;;;5.25;57.29
76352;BME280;65179;47.786;19.138;2023-03-14T05:08:50;99239.37;;;5.29;57.30
76352;BME280;65179;47.786;19.138;2023-03-14T05:11:16;99234.78;;;5.36;57.41
76352;BME280;65179;47.786;19.138;2023-03-14T05:13:41;99230.94;;;5.57;57.47
76352;BME280;65179;47.786;19.138;2023-03-14T05:16:09;99232.56;;;5.64;57.71
76352;BME280;65179;47.786;19.138;2023-03-14T05:18:35;99224.84;;;5.74;57.55
76352;BME280;65179;47.786;19.138;2023-03-14T05:21:00;99221.28;;;5.80;57.20
76352;BME280;65179;47.786;19.138;2023-03-14T05:23:26;99208.84;;;5.79;57.10
76352;BME280;65179;47.786;19.138;2023-03-14T05:25:52;99207.81;;;5.80;57.23
76352;BME280;65179;47.786;19.138;2023-03-14T05:28:17;99207.19;;;5.78;57.06
76352;BME280;65179;47.786;19.138;2023-03-14T05:30:43;99218.59;;;5.80;57.05
76352;BME280;65179;47.786;19.138;2023-03-14T05:33:08;99208.84;;;5.79;57.42
76352;BME280;65179;47.786;19.138;2023-03-14T05:35:33;99218.59;;;5.80;56.97
76352;BME280;65179;47.786;19.138;2023-03-14T05:37:59;99216.50;;;5.82;57.10
76352;BME280;65179;47.786;19.138;2023-03-14T05:40:25;99208.84;;;5.86;57.28
76352;BME280;65179;47.786;19.138;2023-03-14T05:42:50;99217.06;;;5.97;56.85
76352;BME280;65179;47.786;19.138;2023-03-14T05:45:16;99224.03;;;6.05;56.85
76352;BME280;65179;47.786;19.138;2023-03-14T05:47:41;99212.16;;;6.12;56.71
76352;BME280;65179;47.786;19.138;2023-03-14T05:50:07;99204.81;;;6.20;57.11
76352;BME280;65179;47.786;19.138;2023-03-14T05:52:33;99204.31;;;6.29;56.89
76352;BME280;65179;47.786;19.138;2023-03-14T05:54:58;99202.41;;;6.36;56.48
76352;BME280;65179;47.786;19.138;2023-03-14T05:57:24;99195.88;;;6.44;56.25
76352;BME280;65179;47.786;19.138;2023-03-14T05:59:49;99202.88;;;6.51;56.05
76352;BME280;65179;47.786;19.138;2023-03-14T06:02:15;99209.84;;;6.59;56.17
76352;BME280;65179;47.786;19.138;2023-03-14T06:04:40;99208.75;;;6.66;56.10
76352;BME280;65179;47.786;19.138;2023-03-14T06:07:05;99209.28;;;6.75;55.76
76352;BME280;65179;47.786;19.138;2023-03-14T06:09:31;99220.81;;;6.82;55.73
76352;BME280;65179;47.786;19.138;2023-03-14T06:11:56;99214.97;;;6.85;55.64
76352;BME280;65179;47.786;19.138;2023-03-14T06:14:22;99215.56;;;6.87;55.66
76352;BME280;65179;47.786;19.138;2023-03-14T06:16:47;99214.06;;;6.91;56.04
76352;BME280;65179;47.786;19.138;2023-03-14T06:19:14;99207.63;;;6.92;55.87
76352;BME280;65179;47.786;19.138;2023-03-14T06:21:40;99203.84;;;6.93;56.19
76352;BME280;65179;47.786;19.138;2023-03-14T06:24:05;99202.38;;;6.97;55.71
76352;BME280;65179;47.786;19.138;2023-03-14T06:26:31;99198.16;;;7.01;55.72
76352;BME280;65179;47.786;19.138;2023-03-14T06:28:56;99185.87;;;7.05;55.87
76352;BME280;65179;47.786;19.138;2023-03-14T06:31:22;99188.94;;;7.09;55.44
76352;BME280;65179;47.786;19.138;2023-03-14T06:33:47;99188.41;;;7.18;55.32
76352;BME280;65179;47.786;19.138;2023-03-14T06:36:13;99191.63;;;7.27;55.81
76352;BME280;65179;47.786;19.138;2023-03-14T06:38:42;99207.25;;;7.36;55.39
76352;BME280;65179;47.786;19.138;2023-03-14T06:41:07;99209.19;;;7.47;54.91
76352;BME280;65179;47.786;19.138;2023-03-14T06:43:33;99212.62;;;7.54;55.07
76352;BME280;65179;47.786;19.138;2023-03-14T06:45:59;99211.50;;;7.62;55.14
76352;BME280;65179;47.786;19.138;2023-03-14T06:48:24;99207.19;;;7.73;54.68
76352;BME280;65179;47.786;19.138;2023-03-14T06:50:49;99200.00;;;7.78;55.46
76352;BME280;65179;47.786;19.138;2023-03-14T06:53:15;99192.87;;;7.84;55.19
76352;BME280;65179;47.786;19.138;2023-03-14T06:55:40;99192.28;;;7.93;54.92
76352;BME280;65179;47.786;19.138;2023-03-14T06:58:06;99193.72;;;7.96;55.14
76352;BME280;65179;47.786;19.138;2023-03-14T07:00:34;99194.41;;;7.91;54.92
76352;BME280;65179;47.786;19.138;2023-03-14T07:03:00;99201.00;;;7.84;54.81
76352;BME280;65179;47.786;19.138;2023-03-14T07:05:26;99210.97;;;7.83;54.87
76352;BME280;65179;47.786;19.138;2023-03-14T07:07:51;99206.25;;;7.79;54.63
76352;BME280;65179;47.786;19.138;2023-03-14T07:10:17;99206.25;;;7.79;54.61
76352;BME280;65179;47.786;19.138;2023-03-14T07:12:42;99193.31;;;7.81;54.80
76352;BME280;65179;47.786;19.138;2023-03-14T07:15:08;99196.97;;;7.86;54.85
76352;BME280;65179;47.786;19.138;2023-03-14T07:17:34;99197.34;;;7.90;54.66
76352;BME280;65179;47.786;19.138;2023-03-14T07:19:59;99196.41;;;7.96;54.77
76352;BME280;65179;47.786;19.138;2023-03-14T07:22:26;99191.16;;;8.01;55.08
76352;BME280;65179;47.786;19.138;2023-03-14T07:24:51;99206.19;;;8.08;54.26
76352;BME280;65179;47.786;19.138;2023-03-14T07:27:16;99199.84;;;8.14;53.92
76352;BME280;65179;47.786;19.138;2023-03-14T07:29:45;99207.41;;;8.24;54.74
76352;BME280;65179;47.786;19.138;2023-03-14T07:32:13;99197.91;;;8.33;53.77
76352;BME280;65179;47.786;19.138;2023-03-14T07:34:43;99190.97;;;8.37;53.94
76352;BME280;65179;47.786;19.138;2023-03-14T07:37:11;99189.78;;;8.45;53.49
76352;BME280;65179;47.786;19.138;2023-03-14T07:39:37;99191.44;;;8.57;53.88
76352;BME280;65179;47.786;19.138;2023-03-14T07:42:02;99193.66;;;8.72;53.07
76352;BME280;65179;47.786;19.138;2023-03-14T07:44:28;99191.03;;;8.88;52.56
76352;BME280;65179;47.786;19.138;2023-03-14T07:46:53;99186.44;;;9.00;52.42
76352;BME280;65179;47.786;19.138;2023-03-14T07:49:19;99177.34;;;9.18;52.24
76352;BME280;65179;47.786;19.138;2023-03-14T07:51:47;99185.84;;;9.38;52.12
76352;BME280;65179;47.786;19.138;2023-03-14T07:54:13;99178.34;;;9.57;52.89
76352;BME280;65179;47.786;19.138;2023-03-14T07:56:39;99173.94;;;9.67;51.82
76352;BME280;65179;47.786;19.138;2023-03-14T07:59:04;99173.13;;;9.83;51.01
76352;BME280;65179;47.786;19.138;2023-03-14T08:01:36;99170.03;;;9.91;50.97
76352;BME280;65179;47.786;19.138;2023-03-14T08:04:01;99166.03;;;10.11;50.76
76352;BME280;65179;47.786;19.138;2023-03-14T08:06:27;99175.81;;;10.28;50.91
76352;BME280;65179;47.786;19.138;2023-03-14T08:08:55;99170.06;;;10.41;50.61
76352;BME280;65179;47.786;19.138;2023-03-14T08:11:20;99166.34;;;10.47;49.93
76352;BME280;65179;47.786;19.138;2023-03-14T08:13:46;99162.19;;;10.61;50.12
76352;BME280;65179;47.786;19.138;2023-03-14T08:16:18;99156.97;;;10.77;50.14
76352;BME280;65179;47.786;19.138;2023-03-14T08:18:44;99160.91;;;10.86;49.60
76352;BME280;65179;47.786;19.138;2023-03-14T08:21:10;99148.34;;;11.01;49.55
76352;BME280;65179;47.786;19.138;2023-03-14T08:23:35;99151.44;;;11.10;50.05
76352;BME280;65179;47.786;19.138;2023-03-14T08:26:01;99150.00;;;11.29;49.73
76352;BME280;65179;47.786;19.138;2023-03-14T08:28:27;99151.78;;;11.40;48.81
76352;BME280;65179;47.786;19.138;2023-03-14T08:30:56;99136.19;;;11.57;49.18
76352;BME280;65179;47.786;19.138;2023-03-14T08:33:23;99126.56;;;11.71;48.59
76352;BME280;65179;47.786;19.138;2023-03-14T08:35:48;99130.22;;;11.87;48.55
76352;BME280;65179;47.786;19.138;2023-03-14T08:38:16;99135.25;;;12.00;48.09
76352;BME280;65179;47.786;19.138;2023-03-14T08:40:41;99129.69;;;12.22;47.17
76352;BME280;65179;47.786;19.138;2023-03-14T08:43:07;99125.22;;;12.42;46.76
76352;BME280;65179;47.786;19.138;2023-03-14T08:45:32;99132.97;;;12.65;46.96
76352;BME280;65179;47.786;19.138;2023-03-14T08:47:58;99130.88;;;12.82;45.52
76352;BME280;65179;47.786;19.138;2023-03-14T08:50:24;99130.16;;;12.97;46.28
76352;BME280;65179;47.786;19.138;2023-03-14T08:52:50;99127.53;;;13.12;45.26
76352;BME280;65179;47.786;19.138;2023-03-14T08:55:15;99109.28;;;13.18;45.21
76352;BME280;65179;47.786;19.138;2023-03-14T08:57:41;99103.03;;;13.27;44.78
76352;BME280;65179;47.786;19.138;2023-03-14T09:00:08;99099.03;;;13.75;44.16
76352;BME280;65179;47.786;19.138;2023-03-14T09:02:39;99096.00;;;14.17;43.14
76352;BME280;65179;47.786;19.138;2023-03-14T09:05:05;99095.75;;;14.08;42.96
76352;BME280;65179;47.786;19.138;2023-03-14T09:07:31;99089.47;;;14.13;42.32
76352;BME280;65179;47.786;19.138;2023-03-14T09:09:56;99085.66;;;14.29;42.77
76352;BME280;65179;47.786;19.138;2023-03-14T09:12:22;99077.97;;;14.41;42.43
76352;BME280;65179;47.786;19.138;2023-03-14T09:14:47;99079.63;;;14.42;42.39
76352;BME280;65179;47.786;19.138;2023-03-14T09:17:13;99081.16;;;14.78;42.23
76352;BME280;65179;47.786;19.138;2023-03-14T09:19:38;99063.56;;;14.99;41.99
76352;BME280;65179;47.786;19.138;2023-03-14T09:22:03;99052.59;;;15.04;41.33
76352;BME280;65179;47.786;19.138;2023-03-14T09:24:29;99047.13;;;15.04;40.84
76352;BME280;65179;47.786;19.138;2023-03-14T09:26:55;99044.81;;;15.27;40.92
76352;BME280;65179;47.786;19.138;2023-03-14T09:29:22;99041.28;;;15.65;40.64
76352;BME280;65179;47.786;19.138;2023-03-14T09:31:47;99042.00;;;15.80;40.02
76352;BME280;65179;47.786;19.138;2023-03-14T09:34:13;99035.41;;;15.81;40.03
76352;BME280;65179;47.786;19.138;2023-03-14T09:36:38;99036.09;;;15.97;39.52
76352;BME280;65179;47.786;19.138;2023-03-14T09:39:05;99028.13;;;16.24;39.30
76352;BME280;65179;47.786;19.138;2023-03-14T09:41:35;99022.78;;;16.14;38.75
76352;BME280;65179;47.786;19.138;2023-03-14T09:44:06;99022.28;;;16.36;39.25
76352;BME280;65179;47.786;19.138;2023-03-14T09:46:35;99017.75;;;16.74;38.82
76352;BME280;65179;47.786;19.138;2023-03-14T09:49:02;99012.31;;;16.68;38.32
76352;BME280;65179;47.786;19.138;2023-03-14T09:51:28;99017.69;;;16.79;38.16
76352;BME280;65179;47.786;19.138;2023-03-14T09:53:54;99011.03;;;17.03;38.10
76352;BME280;65179;47.786;19.138;2023-03-14T09:56:25;98998.38;;;17.26;37.91
76352;BME280;65179;47.786;19.138;2023-03-14T09:58:55;98993.69;;;17.45;37.71
76352;BME280;65179;47.786;19.138;2023-03-14T10:01:30;98977.88;;;17.37;37.61
76352;BME280;65179;47.786;19.138;2023-03-14T10:03:58;98972.53;;;17.45;37.19
76352;BME280;65179;47.786;19.138;2023-03-14T10:06:27;98955.41;;;17.35;37.30
76352;BME280;65179;47.786;19.138;2023-03-14T10:08:54;98972.87;;;17.76;36.88
76352;BME280;65179;47.786;19.138;2023-03-14T10:11:19;98964.75;;;17.71;36.68
76352;BME280;65179;47.786;19.138;2023-03-14T10:14:28;98957.56;;;18.02;36.14
76352;BME280;65179;47.786;19.138;2023-03-14T10:16:45;98951.13;;;17.93;36.51
76352;BME280;65179;47.786;19.138;2023-03-14T10:19:14;98945.84;;;17.83;36.20
76352;BME280;65179;47.786;19.138;2023-03-14T10:21:42;98926.31;;;17.71;37.45
76352;BME280;65179;47.786;19.138;2023-03-14T10:24:18;98935.94;;;17.18;37.75
76352;BME280;65179;47.786;19.138;2023-03-14T10:26:48;98939.88;;;17.12;38.25
76352;BME280;65179;47.786;19.138;2023-03-14T10:29:15;98944.03;;;17.28;37.70
76352;BME280;65179;47.786;19.138;2023-03-14T10:34:24;98932.34;;;17.55;37.31
76352;BME280;65179;47.786;19.138;2023-03-14T10:36:54;98930.84;;;17.62;36.99
76352;BME280;65179;47.786;19.138;2023-03-14T10:44:40;98917.13;;;17.62;37.47
76352;BME280;65179;47.786;19.138;2023-03-14T10:47:12;98918.69;;;17.95;37.09
76352;BME280;65179;47.786;19.138;2023-03-14T10:49:40;98913.03;;;18.19;36.56
76352;BME280;65179;47.786;19.138;2023-03-14T10:54:34;98892.50;;;19.02;35.09
76352;BME280;65179;47.786;19.138;2023-03-14T10:57:01;98898.91;;;19.11;34.75
76352;BME280;65179;47.786;19.138;2023-03-14T10:59:36;98890.84;;;18.92;35.37
76352;BME280;65179;47.786;19.138;2023-03-14T11:05:10;98871.19;;;19.51;35.05
76352;BME280;65179;47.786;19.138;2023-03-14T11:07:43;98875.47;;;19.13;34.74
76352;BME280;65179;47.786;19.138;2023-03-14T11:21:13;98842.56;;;20.31;32.88
76352;BME280;65179;47.786;19.138;2023-03-14T11:23:41;98838.03;;;20.35;32.96
76352;BME280;65179;47.786;19.138;2023-03-14T11:26:20;98825.63;;;20.15;32.70
76352;BME280;65179;47.786;19.138;2023-03-14T11:28:50;98818.88;;;20.30;32.75
76352;BME280;65179;47.786;19.138;2023-03-14T11:31:29;98813.88;;;20.49;32.92
76352;BME280;65179;47.786;19.138;2023-03-14T11:34:03;98796.19;;;20.59;32.43
76352;BME280;65179;47.786;19.138;2023-03-14T11:36:46;98792.00;;;20.70;32.21
76352;BME280;65179;47.786;19.138;2023-03-14T11:39:18;98791.50;;;20.51;32.29
76352;BME280;65179;47.786;19.138;2023-03-14T11:41:49;98785.81;;;20.56;32.88
76352;BME280;65179;47.786;19.138;2023-03-14T11:49:32;98758.53;;;20.80;32.18
76352;BME280;65179;47.786;19.138;2023-03-14T11:52:09;98761.66;;;20.61;32.76
76352;BME280;65179;47.786;19.138;2023-03-14T11:54:53;98772.66;;;20.78;32.35
76352;BME280;65179;47.786;19.138;2023-03-14T11:57:21;98767.78;;;20.75;32.51
76352;BME280;65179;47.786;19.138;2023-03-14T12:10:52;98735.00;;;20.14;33.27
76352;BME280;65179;47.786;19.138;2023-03-14T12:13:19;98729.13;;;19.90;34.27
76352;BME280;65179;47.786;19.138;2023-03-14T12:15:53;98731.88;;;19.90;34.23
76352;BME280;65179;47.786;19.138;2023-03-14T12:18:26;98747.12;;;19.96;34.08
76352;BME280;65179;47.786;19.138;2023-03-14T12:21:03;98743.37;;;19.92;34.35
76352;BME280;65179;47.786;19.138;2023-03-14T12:24:14;98717.59;;;19.79;34.48
76352;BME280;65179;47.786;19.138;2023-03-14T12:30:00;98725.91;;;19.48;34.95
76352;BME280;65179;47.786;19.138;2023-03-14T12:32:26;98716.00;;;19.39;35.14
76352;BME280;65179;47.786;19.138;2023-03-14T12:34:51;98721.09;;;19.32;35.44
76352;BME280;65179;47.786;19.138;2023-03-14T12:37:33;98713.28;;;19.25;35.29
76352;BME280;65179;47.786;19.138;2023-03-14T12:42:56;98714.25;;;19.12;35.28
76352;BME280;65179;47.786;19.138;2023-03-14T12:51:00;98717.19;;;18.93;35.46
76352;BME280;65179;47.786;19.138;2023-03-14T13:05:00;98706.16;;;18.63;35.14
76352;BME280;65179;47.786;19.138;2023-03-14T13:10:26;98693.78;;;18.52;35.33
76352;BME280;65179;47.786;19.138;2023-03-14T13:15:30;98699.19;;;18.43;35.00
76352;BME280;65179;47.786;19.138;2023-03-14T13:18:15;98706.44;;;18.39;35.04
76352;BME280;65179;47.786;19.138;2023-03-14T13:23:26;98696.88;;;18.37;34.62
76352;BME280;65179;47.786;19.138;2023-03-14T13:25:52;98704.50;;;18.40;34.96
76352;BME280;65179;47.786;19.138;2023-03-14T13:28:18;98700.34;;;18.42;34.75
76352;BME280;65179;47.786;19.138;2023-03-14T13:30:49;98697.25;;;18.44;34.77
76352;BME280;65179;47.786;19.138;2023-03-14T13:33:22;98698.69;;;18.41;34.90
76352;BME280;65179;47.786;19.138;2023-03-14T13:36:02;98703.41;;;18.41;34.79
76352;BME280;65179;47.786;19.138;2023-03-14T13:38:32;98704.00;;;18.38;35.12
76352;BME280;65179;47.786;19.138;2023-03-14T13:41:00;98704.84;;;18.38;34.97
76352;BME280;65179;47.786;19.138;2023-03-14T13:43:33;98711.13;;;18.39;34.54
76352;BME280;65179;47.786;19.138;2023-03-14T13:48:30;98705.75;;;18.34;34.77
76352;BME280;65179;47.786;19.138;2023-03-14T13:51:04;98705.13;;;18.37;34.50
76352;BME280;65179;47.786;19.138;2023-03-14T13:53:31;98706.25;;;18.36;34.67
76352;BME280;65179;47.786;19.138;2023-03-14T13:56:00;98704.34;;;18.36;34.67
76352;BME280;65179;47.786;19.138;2023-03-14T13:58:28;98705.63;;;18.39;34.68
76352;BME280;65179;47.786;19.138;2023-03-14T14:03:50;98716.50;;;18.44;34.73
76352;BME280;65179;47.786;19.138;2023-03-14T14:08:48;98722.31;;;18.56;33.95
76352;BME280;65179;47.786;19.138;2023-03-14T14:11:28;98707.25;;;18.53;34.43
76352;BME280;65179;47.786;19.138;2023-03-14T14:13:56;98714.16;;;18.51;34.37
76352;BME280;65179;47.786;19.138;2023-03-14T14:16:24;98715.41;;;18.45;34.55
76352;BME280;65179;47.786;19.138;2023-03-14T14:18:53;98709.09;;;18.44;34.44
76352;BME280;65179;47.786;19.138;2023-03-14T14:21:20;98715.00;;;18.38;34.67
76352;BME280;65179;47.786;19.138;2023-03-14T14:23:46;98721.13;;;18.35;34.76
76352;BME280;65179;47.786;19.138;2023-03-14T14:26:16;98720.94;;;18.31;34.98
76352;BME280;65179;47.786;19.138;2023-03-14T14:28:43;98726.84;;;18.25;35.71